Time;durP1;ratioP1;P1;durP2;ratioP2;P2;SDS_P1;SDS_P2;PMS_P1;PMS_P2;Temp;Humidity;BMP_temperature;BMP_pressure;BME280_temperature;BME280_humidity;BME280_pressure;Samples;Min_cycle;Max_cycle;Signal;HPM_P1;HPM_P2
2023/04/09 00:00:21;;;;;;;29.77;26.53;;;;;;;10.10;100.00;101994.63;2064287;28;20594;-69
2023/04/09 00:01:21;;;;;;;30.13;27.03;;;;;;;10.10;100.00;101983.53;2063009;28;20182;-69
2023/04/09 00:02:22;;;;;;;29.10;26.10;;;;;;;10.16;100.00;101992.25;2063512;28;20182;-69
2023/04/09 00:03:22;;;;;;;30.63;26.07;;;;;;;10.16;100.00;101998.59;2064379;28;20185;-69
2023/04/09 00:04:23;;;;;;;29.83;26.03;;;;;;;9.77;100.00;101939.63;2064346;28;20224;-69
2023/04/09 00:05:23;;;;;;;29.93;26.73;;;;;;;10.05;100.00;101961.00;2063983;28;20201;-69
2023/04/09 00:06:24;;;;;;;29.13;25.87;;;;;;;10.27;100.00;101990.28;2064251;28;20193;-69
2023/04/09 00:07:25;;;;;;;29.07;25.97;;;;;;;10.29;100.00;101993.41;2064295;28;20633;-69
2023/04/09 00:08:25;;;;;;;29.10;25.93;;;;;;;10.14;100.00;101967.72;2064164;28;20441;-69
2023/04/09 00:09:26;;;;;;;29.80;26.43;;;;;;;10.26;100.00;101991.47;2064198;28;20178;-69
2023/04/09 00:10:26;;;;;;;30.00;25.90;;;;;;;10.19;100.00;101989.47;2064034;28;20656;-69
2023/04/09 00:11:26;;;;;;;30.27;27.03;;;;;;;10.21;100.00;101991.88;2063422;28;20178;-69
2023/04/09 00:12:29;;;;;;;32.70;26.43;;;;;;;10.22;100.00;101988.69;2055632;28;20206;-69
2023/04/09 00:13:29;;;;;;;28.83;25.77;;;;;;;10.21;100.00;101992.66;2063744;28;20209;-69
2023/04/09 00:14:29;;;;;;;30.00;26.67;;;;;;;10.26;100.00;101989.47;2057866;28;20481;-69
2023/04/09 00:15:30;;;;;;;30.27;26.97;;;;;;;10.16;100.00;101989.50;2061149;28;20200;-69
2023/04/09 00:16:30;;;;;;;30.13;26.50;;;;;;;10.14;100.00;101986.34;2064148;28;20277;-69
2023/04/09 00:17:31;;;;;;;29.47;26.37;;;;;;;10.14;100.00;101995.41;2064062;28;20205;-69
2023/04/09 00:18:31;;;;;;;31.77;26.50;;;;;;;10.07;100.00;101987.13;2064289;28;20695;-69
2023/04/09 00:19:32;;;;;;;29.20;26.10;;;;;;;10.12;100.00;101988.69;2063990;28;20266;-69
2023/04/09 00:20:32;;;;;;;29.87;26.60;;;;;;;10.14;100.00;101991.88;2064360;28;20570;-69
2023/04/09 00:21:33;;;;;;;29.53;26.33;;;;;;;10.13;100.00;101993.03;2055938;28;20311;-69
2023/04/09 00:22:33;;;;;;;28.17;25.10;;;;;;;10.09;100.00;101990.28;2063011;28;20201;-69
2023/04/09 00:23:34;;;;;;;29.10;26.00;;;;;;;10.10;100.00;101991.84;2064159;28;20214;-69
2023/04/09 00:24:34;;;;;;;29.60;26.43;;;;;;;10.15;100.00;101990.69;2063908;28;20190;-69
2023/04/09 00:25:35;;;;;;;30.53;26.67;;;;;;;10.16;100.00;101989.50;2059731;28;20274;-69
2023/04/09 00:26:36;;;;;;;29.40;26.30;;;;;;;10.20;100.00;101991.06;2058304;28;20190;-69
2023/04/09 00:27:36;;;;;;;28.70;25.63;;;;;;;10.11;100.00;101971.31;2062960;28;20494;-69
2023/04/09 00:28:36;;;;;;;29.83;25.50;;;;;;;10.24;100.00;101994.63;2056380;28;20562;-69
2023/04/09 00:29:37;;;;;;;29.30;26.00;;;;;;;9.64;100.00;101899.66;2056245;28;20225;-69
2023/04/09 00:30:37;;;;;;;28.90;25.80;;;;;;;10.11;100.00;101979.63;2063069;28;20182;-69
2023/04/09 00:31:38;;;;;;;30.80;26.73;;;;;;;10.27;100.00;101988.31;2063881;28;20218;-69
2023/04/09 00:32:38;;;;;;;30.10;26.80;;;;;;;10.17;100.00;101978.03;2063375;28;20236;-69
2023/04/09 00:33:39;;;;;;;29.90;26.70;;;;;;;10.25;100.00;101993.44;2064015;28;20193;-69
2023/04/09 00:34:39;;;;;;;28.93;25.87;;;;;;;10.01;100.00;101952.69;2064258;28;20207;-69
2023/04/09 00:35:40;;;;;;;29.27;26.10;;;;;;;10.27;100.00;101998.59;2063684;28;20235;-69
2023/04/09 00:36:40;;;;;;;28.93;25.63;;;;;;;10.28;100.00;101986.31;2064120;28;20182;-69
2023/04/09 00:37:41;;;;;;;29.73;26.50;;;;;;;10.30;100.00;102001.34;2064145;28;20481;-69
2023/04/09 00:38:41;;;;;;;29.37;26.17;;;;;;;10.31;100.00;101996.59;2056944;28;20221;-69
2023/04/09 00:39:41;;;;;;;30.20;25.33;;;;;;;10.35;100.00;101992.63;2062178;28;20197;-69
2023/04/09 00:40:42;;;;;;;28.93;25.83;;;;;;;9.33;100.00;101833.25;2063828;28;20214;-69
2023/04/09 00:41:43;;;;;;;29.40;25.67;;;;;;;9.93;100.00;101923.41;2064008;28;20720;-69
2023/04/09 00:42:43;;;;;;;28.63;25.63;;;;;;;10.38;100.00;101985.50;2060662;28;20234;-69
2023/04/09 00:43:44;;;;;;;29.43;26.33;;;;;;;10.47;100.00;101994.22;2057675;28;20215;-69
2023/04/09 00:44:44;;;;;;;28.63;25.50;;;;;;;10.17;100.00;101949.50;2063374;28;20640;-69
2023/04/09 00:45:45;;;;;;;27.37;24.47;;;;;;;10.46;100.00;101996.16;2055804;28;20216;-69
2023/04/09 00:46:45;;;;;;;28.20;25.23;;;;;;;9.90;100.00;101904.78;2063655;28;20194;-69
2023/04/09 00:47:46;;;;;;;28.57;25.60;;;;;;;10.40;100.00;101985.91;2057676;28;20671;-69
2023/04/09 00:48:46;;;;;;;27.80;24.70;;;;;;;9.29;100.00;101813.09;2061564;28;20205;-69
2023/04/09 00:49:47;;;;;;;27.93;25.03;;;;;;;10.42;100.00;101994.59;2059895;28;20221;-69
2023/04/09 00:50:47;;;;;;;27.87;24.97;;;;;;;10.39;100.00;101992.63;2060063;28;20281;-69
2023/04/09 00:51:48;;;;;;;28.23;25.20;;;;;;;10.33;100.00;101991.44;2063628;28;20637;-69
2023/04/09 00:52:48;;;;;;;29.70;26.60;;;;;;;10.37;100.00;101997.78;2057860;28;20213;-69
2023/04/09 00:53:49;;;;;;;30.73;26.63;;;;;;;10.39;100.00;102003.72;2056726;28;20254;-69
2023/04/09 00:54:51;;;;;;;28.37;25.37;;;;;;;10.40;100.00;101997.78;2052636;28;20236;-69
2023/04/09 00:55:52;;;;;;;27.47;24.57;;;;;;;10.45;100.00;101994.59;2064252;28;20463;-69
2023/04/09 00:56:55;;;;;;;28.37;25.57;;;;;;;10.45;100.00;101986.28;2059461;28;20424;-69
2023/04/09 00:57:56;;;;;;;28.67;25.57;;;;;;;10.46;100.00;101992.63;2062634;28;20483;-69
2023/04/09 00:58:56;;;;;;;31.00;25.40;;;;;;;10.33;100.00;101967.31;2061524;28;21009;-69
2023/04/09 00:59:57;;;;;;;28.53;25.63;;;;;;;10.00;100.00;101919.84;2060410;28;20287;-69
2023/04/09 01:00:57;;;;;;;28.57;25.47;;;;;;;10.53;100.00;101992.59;2060568;28;20581;-69
2023/04/09 01:01:58;;;;;;;28.33;25.37;;;;;;;10.58;100.00;101992.19;2065208;28;20266;-69
2023/04/09 01:02:59;;;;;;;28.47;24.33;;;;;;;10.65;100.00;101989.44;2065644;28;20262;-69
2023/04/09 01:04:00;;;;;;;28.07;24.73;;;;;;;10.62;100.00;102001.31;2057525;28;20223;-69
2023/04/09 01:05:01;;;;;;;26.17;23.33;;;;;;;10.69;100.00;101998.50;2064580;28;20933;-69
2023/04/09 01:06:27;;;;;;;27.27;24.37;;;;;;;10.63;100.00;101989.03;2059094;28;20187;-69
2023/04/09 01:07:58;;;;;;;29.48;24.40;;;;;;;10.64;100.00;101993.38;2057507;28;20215;-69
2023/04/09 01:09:27;;;;;;;27.90;24.33;;;;;;;10.35;100.00;101942.75;2059484;28;20162;-69
2023/04/09 01:10:37;;;;;;;26.73;23.83;;;;;;;10.61;100.00;101989.41;2060878;28;20429;-69
2023/04/09 01:11:40;;;;;;;30.10;25.20;;;;;;;10.63;100.00;101991.78;2061870;28;20849;-69
2023/04/09 01:12:53;;;;;;;27.93;24.93;;;;;;;10.62;100.00;101996.56;2065143;28;20444;-69
2023/04/09 01:14:04;;;;;;;28.13;25.23;;;;;;;10.64;100.00;101996.94;2064930;28;20542;-69
2023/04/09 01:15:09;;;;;;;27.37;24.43;;;;;;;10.57;100.00;101977.56;2065373;28;20429;-69
2023/04/09 01:16:14;;;;;;;27.13;24.27;;;;;;;10.64;100.00;101996.13;2065011;28;20939;-69
2023/04/09 01:17:20;;;;;;;29.85;26.42;;;;;;;10.64;100.00;101991.41;2065120;28;20975;-69
2023/04/09 01:18:33;;;;;;;28.03;24.47;;;;;;;10.68;100.00;101994.16;2065411;28;20189;-69
2023/04/09 01:19:50;;;;;;;29.17;26.02;;;;;;;10.67;100.00;101992.59;2065311;28;20487;-69
2023/04/09 01:21:19;;;;;;;29.13;24.83;;;;;;;10.67;100.00;101990.59;2064959;28;20223;-69
2023/04/09 01:22:40;;;;;;;29.67;24.63;;;;;;;10.64;100.00;101999.72;2064869;28;20443;-69
2023/04/09 01:23:58;;;;;;;29.30;25.33;;;;;;;9.97;100.00;101901.22;2057120;28;20429;-69
2023/04/09 01:25:07;;;;;;;29.87;25.43;;;;;;;10.62;100.00;101988.25;2065521;28;20501;-69
2023/04/09 01:26:18;;;;;;;28.93;25.83;;;;;;;10.59;100.00;101986.25;2065073;28;20459;-69
2023/04/09 01:27:19;;;;;;;27.90;24.90;;;;;;;10.56;100.00;101989.81;2065216;28;20536;-69
2023/04/09 01:28:44;;;;;;;27.53;24.67;;;;;;;10.49;100.00;101991.81;2065434;28;20519;-69
2023/04/09 01:29:46;;;;;;;28.90;24.80;;;;;;;10.42;100.00;101986.28;2053363;28;20212;-69
2023/04/09 01:30:49;;;;;;;28.37;25.07;;;;;;;10.40;100.00;101995.00;2064788;28;20934;-69
2023/04/09 01:31:51;;;;;;;29.07;25.37;;;;;;;9.98;100.00;101934.06;2065262;28;20439;-69
2023/04/09 01:32:53;;;;;;;28.90;25.90;;;;;;;10.37;100.00;101989.47;2064872;28;20937;-69
2023/04/09 01:33:54;;;;;;;28.92;25.92;;;;;;;9.59;100.00;101875.16;2064983;28;20539;-69
2023/04/09 01:34:55;;;;;;;28.35;25.25;;;;;;;10.35;100.00;101989.84;2065484;28;20201;-69
2023/04/09 01:35:56;;;;;;;27.67;24.77;;;;;;;10.36;100.00;101993.44;2064611;28;20295;-69
2023/04/09 01:36:59;;;;;;;28.37;25.00;;;;;;;10.39;100.00;101996.19;2056539;28;20331;-69
2023/04/09 01:38:02;;;;;;;29.80;25.83;;;;;;;10.41;100.00;101999.34;2056967;28;20189;-69
2023/04/09 01:39:05;;;;;;;29.23;25.70;;;;;;;10.41;100.00;101998.56;2065334;28;20534;-69
2023/04/09 01:40:06;;;;;;;29.03;26.03;;;;;;;10.44;100.00;101998.56;2065254;28;20463;-69
2023/04/09 01:41:13;;;;;;;31.77;26.90;;;;;;;10.44;100.00;101995.00;2058098;28;20482;-69
2023/04/09 01:42:15;;;;;;;28.93;25.93;;;;;;;10.21;100.00;101975.25;2063150;28;20441;-69
2023/04/09 01:43:17;;;;;;;28.90;25.97;;;;;;;10.42;100.00;102000.16;2056363;28;20432;-69
2023/04/09 01:44:18;;;;;;;31.77;27.47;;;;;;;10.45;100.00;101997.38;2056331;28;20454;-69
2023/04/09 01:45:19;;;;;;;30.47;26.33;;;;;;;10.50;100.00;101996.19;2056450;28;20433;-69
2023/04/09 01:46:21;;;;;;;28.60;25.67;;;;;;;10.09;100.00;101929.34;2064250;28;20482;-69
2023/04/09 01:47:22;;;;;;;29.57;26.50;;;;;;;10.32;100.00;101976.00;2065114;28;20450;-69
2023/04/09 01:48:23;;;;;;;30.30;26.30;;;;;;;10.42;100.00;102000.94;2065074;28;20531;-69
2023/04/09 01:49:24;;;;;;;29.77;25.73;;;;;;;10.44;100.00;102000.53;2065248;28;20629;-69
2023/04/09 01:50:25;;;;;;;30.73;27.43;;;;;;;10.46;100.00;101998.16;2065066;28;20470;-69
2023/04/09 01:51:26;;;;;;;30.70;27.50;;;;;;;10.49;100.00;102005.66;2062710;28;20329;-69
2023/04/09 01:52:26;;;;;;;29.90;26.23;;;;;;;10.53;100.00;102010.03;2057603;28;20426;-69
2023/04/09 01:53:27;;;;;;;29.80;26.53;;;;;;;10.55;100.00;102004.09;2065364;28;20744;-69
2023/04/09 01:54:27;;;;;;;29.53;26.33;;;;;;;10.48;100.00;102006.88;2057517;28;20187;-69
2023/04/09 01:55:28;;;;;;;29.97;26.47;;;;;;;10.39;100.00;102001.75;2064651;28;20278;-69
2023/04/09 01:56:42;;;;;;;29.07;25.80;;;;;;;10.30;100.00;102004.13;2059479;28;20249;-69
2023/04/09 01:57:42;;;;;;;28.67;25.57;;;;;;;10.29;100.00;102001.75;2063330;28;20605;-69
2023/04/09 01:58:43;;;;;;;30.60;26.80;;;;;;;10.30;100.00;102003.34;2060083;28;20472;-69
2023/04/09 01:59:43;;;;;;;28.53;25.53;;;;;;;10.28;100.00;102005.69;2061071;28;20188;-69
2023/04/09 02:00:48;;;;;;;30.37;25.90;;;;;;;10.28;100.00;102009.28;2061684;28;20628;-69
2023/04/09 02:02:09;;;;;;;29.33;26.23;;;;;;;10.16;100.00;102006.13;2058329;28;20265;-69
2023/04/09 02:03:19;;;;;;;29.90;25.83;;;;;;;9.90;100.00;101962.94;2061120;28;20461;-69
2023/04/09 02:04:28;;;;;;;30.60;25.70;;;;;;;10.01;100.00;102002.53;2060807;28;20646;-69
2023/04/09 02:05:33;;;;;;;30.20;26.10;;;;;;;9.57;100.00;101943.16;2060468;28;20451;-69
2023/04/09 02:06:41;;;;;;;30.87;26.87;;;;;;;9.75;100.00;101969.69;2060697;28;20534;-69
2023/04/09 02:07:46;;;;;;;31.50;27.07;;;;;;;9.45;100.00;101915.88;2061411;28;20851;-69
2023/04/09 02:08:47;;;;;;;29.67;26.47;;;;;;;9.77;100.00;101977.56;2059926;28;20598;-69
2023/04/09 02:09:52;;;;;;;30.63;26.17;;;;;;;9.93;100.00;102002.91;2062957;28;20432;-69
2023/04/09 02:10:56;;;;;;;29.33;26.23;;;;;;;9.91;100.00;102000.53;2056480;28;20185;-69
2023/04/09 02:12:01;;;;;;;30.85;27.48;;;;;;;8.76;100.00;101817.78;2064861;28;20184;-69
2023/04/09 02:13:04;;;;;;;29.77;26.57;;;;;;;9.37;100.00;101915.06;2057229;28;20182;-69
2023/04/09 02:14:07;;;;;;;29.90;26.80;;;;;;;9.04;100.00;101857.31;2064249;28;20548;-69
2023/04/09 02:15:09;;;;;;;30.50;26.67;;;;;;;9.91;100.00;102006.09;2058261;28;20666;-69
2023/04/09 02:16:14;;;;;;;30.33;26.93;;;;;;;9.82;100.00;102002.91;2062171;28;20502;-69
2023/04/09 02:17:14;;;;;;;31.17;27.40;;;;;;;9.80;100.00;101987.88;2064800;28;20453;-69
2023/04/09 02:18:27;;;;;;;30.67;26.30;;;;;;;9.90;100.00;101998.94;2060272;28;20434;-69
2023/04/09 02:19:43;;;;;;;30.53;26.67;;;;;;;9.90;100.00;101998.16;2061183;28;20237;-69
2023/04/09 02:20:44;;;;;;;30.02;26.13;;;;;;;9.86;100.00;101994.59;2064567;28;20511;-69
2023/04/09 02:21:45;;;;;;;31.17;26.43;;;;;;;9.88;100.00;101997.75;2064758;28;20222;-69
2023/04/09 02:22:45;;;;;;;29.90;26.70;;;;;;;9.83;100.00;101993.41;2064576;28;20623;-69
2023/04/09 02:23:46;;;;;;;30.73;27.50;;;;;;;9.88;100.00;101997.75;2064985;28;20435;-69
2023/04/09 02:24:46;;;;;;;29.60;26.57;;;;;;;9.93;100.00;101994.59;2065555;28;20188;-69
2023/04/09 02:25:47;;;;;;;31.20;27.90;;;;;;;9.89;100.00;102000.13;2072344;28;20697;-69
2023/04/09 02:26:47;;;;;;;30.63;27.43;;;;;;;9.14;100.00;101886.97;2064910;28;20185;-69
2023/04/09 02:27:47;;;;;;;31.00;27.70;;;;;;;9.90;100.00;102004.47;2064912;28;20219;-69
2023/04/09 02:28:48;;;;;;;31.23;27.77;;;;;;;8.98;100.00;101849.81;2059082;28;20185;-69
2023/04/09 02:29:49;;;;;;;29.90;26.77;;;;;;;9.21;100.00;101884.22;2061709;28;20240;-69
2023/04/09 02:30:50;;;;;;;29.75;26.63;;;;;;;9.97;100.00;102004.50;2064311;28;20275;-69
2023/04/09 02:31:52;;;;;;;29.87;26.60;;;;;;;9.88;100.00;101986.69;2064839;28;20185;-69
2023/04/09 02:32:52;;;;;;;30.33;27.13;;;;;;;10.02;100.00;102006.88;2064415;28;20178;-69
2023/04/09 02:33:53;;;;;;;30.80;27.40;;;;;;;10.03;100.00;101993.81;2064598;28;20259;-69
2023/04/09 02:34:53;;;;;;;29.67;26.53;;;;;;;10.06;100.00;102001.38;2064942;28;20223;-69
2023/04/09 02:35:53;;;;;;;29.23;26.17;;;;;;;10.05;100.00;101997.00;2064434;28;20202;-69
2023/04/09 02:36:54;;;;;;;29.67;26.57;;;;;;;10.00;100.00;102005.69;2064958;28;20246;-69
2023/04/09 02:37:54;;;;;;;29.13;26.03;;;;;;;9.06;100.00;101849.41;2064729;28;20196;-69
2023/04/09 02:38:55;;;;;;;29.70;26.30;;;;;;;10.08;100.00;102001.75;2064168;28;20209;-69
2023/04/09 02:39:55;;;;;;;29.63;26.43;;;;;;;10.12;100.00;101997.00;2064548;28;20195;-69
2023/04/09 02:40:56;;;;;;;28.50;25.67;;;;;;;10.11;100.00;101998.19;2064279;28;20315;-69
2023/04/09 02:41:56;;;;;;;29.90;26.70;;;;;;;10.02;100.00;102000.53;2064631;28;20279;-69
2023/04/09 02:42:57;;;;;;;30.50;27.10;;;;;;;9.60;100.00;101945.94;2065018;28;20658;-69
2023/04/09 02:43:57;;;;;;;30.03;26.83;;;;;;;9.96;100.00;102005.69;2064846;28;20225;-69
2023/04/09 02:44:58;;;;;;;30.67;27.37;;;;;;;9.74;100.00;101970.06;2064392;28;20272;-69
2023/04/09 02:45:58;;;;;;;30.43;27.07;;;;;;;9.10;100.00;101866.81;2064245;28;20216;-69
2023/04/09 02:47:17;;;;;;;31.10;27.80;;;;;;;10.02;100.00;102003.31;2064707;28;20259;-69
2023/04/09 02:48:17;;;;;;;29.90;26.80;;;;;;;9.32;100.00;101900.84;2058957;28;20190;-69
2023/04/09 02:49:18;;;;;;;30.10;26.77;;;;;;;10.05;100.00;102000.56;2061402;28;20458;-69
2023/04/09 02:50:18;;;;;;;31.30;27.73;;;;;;;10.09;100.00;102000.59;2061239;28;20184;-69
2023/04/09 02:51:19;;;;;;;30.83;27.63;;;;;;;9.64;100.00;101938.41;2058503;28;20190;-69
2023/04/09 02:52:23;;;;;;;30.73;27.40;;;;;;;9.85;100.00;101970.88;2062983;28;20249;-69
2023/04/09 02:53:24;;;;;;;29.70;26.60;;;;;;;10.05;100.00;102002.56;2057278;28;20185;-69
2023/04/09 02:54:24;;;;;;;30.23;26.95;;;;;;;10.10;100.00;101996.63;2064673;28;20548;-69
2023/04/09 02:55:25;;;;;;;30.70;27.37;;;;;;;10.11;100.00;102006.50;2063968;28;20202;-69
2023/04/09 02:56:25;;;;;;;30.77;27.47;;;;;;;9.92;100.00;101977.19;2064759;28;20226;-69
2023/04/09 02:57:25;;;;;;;29.40;26.30;;;;;;;10.16;100.00;102011.66;2059073;28;20207;-69
2023/04/09 02:58:26;;;;;;;30.10;27.03;;;;;;;10.13;100.00;101996.63;2060974;28;20198;-69
2023/04/09 02:59:26;;;;;;;29.87;26.77;;;;;;;10.02;100.00;101978.38;2064670;28;20198;-69
2023/04/09 03:00:27;;;;;;;30.50;27.30;;;;;;;10.16;100.00;102006.13;2064533;28;20186;-69
2023/04/09 03:01:27;;;;;;;30.57;27.47;;;;;;;10.19;100.00;102000.56;2063977;28;20177;-69
2023/04/09 03:02:28;;;;;;;29.57;26.60;;;;;;;9.96;100.00;101958.63;2064436;28;20621;-69
2023/04/09 03:03:29;;;;;;;30.23;27.13;;;;;;;10.22;100.00;101999.78;2064559;28;20221;-69
2023/04/09 03:04:30;;;;;;;30.37;27.07;;;;;;;10.23;100.00;102006.09;2064740;28;20558;-69
2023/04/09 03:05:30;;;;;;;30.93;27.57;;;;;;;10.19;100.00;101994.25;2063789;28;20435;-70
2023/04/09 03:06:31;;;;;;;31.17;26.97;;;;;;;10.21;100.00;102008.47;2059872;28;20195;-69
2023/04/09 03:07:31;;;;;;;30.87;27.67;;;;;;;10.12;100.00;101991.47;2056588;28;20191;-69
2023/04/09 03:08:31;;;;;;;30.70;27.50;;;;;;;10.18;100.00;101998.19;2058918;28;20184;-69
2023/04/09 03:09:32;;;;;;;30.60;27.47;;;;;;;10.16;100.00;102000.56;2062484;28;20726;-69
2023/04/09 03:10:32;;;;;;;31.60;28.30;;;;;;;10.11;100.00;102006.50;2055855;28;20246;-69
2023/04/09 03:11:33;;;;;;;32.53;28.70;;;;;;;10.16;100.00;102000.56;2056311;28;20235;-69
2023/04/09 03:12:33;;;;;;;31.90;28.53;;;;;;;9.87;100.00;101977.59;2056084;28;20576;-69
2023/04/09 03:13:34;;;;;;;29.77;26.67;;;;;;;10.13;100.00;102004.13;2062298;28;20291;-69
2023/04/09 03:14:34;;;;;;;31.67;28.20;;;;;;;10.02;100.00;101995.00;2059567;28;20180;-70
2023/04/09 03:15:34;;;;;;;31.37;28.10;;;;;;;9.97;100.00;101998.16;2059341;28;20692;-69
2023/04/09 03:16:35;;;;;;;31.87;28.47;;;;;;;10.01;100.00;102007.25;2064580;28;20275;-69
2023/04/09 03:17:35;;;;;;;33.23;29.10;;;;;;;10.04;100.00;102006.53;2064353;28;20173;-69
2023/04/09 03:18:36;;;;;;;32.97;28.20;;;;;;;10.07;100.00;102002.94;2064121;28;20700;-69
2023/04/09 03:19:36;;;;;;;32.70;29.00;;;;;;;10.16;100.00;102001.38;2056580;28;20261;-69
2023/04/09 03:20:38;;;;;;;31.33;27.93;;;;;;;9.78;100.00;101943.97;2063771;28;20196;-69
2023/04/09 03:21:38;;;;;;;32.37;29.00;;;;;;;10.23;100.00;102006.09;2058027;28;20190;-69
2023/04/09 03:22:39;;;;;;;34.27;28.60;;;;;;;10.27;100.00;102004.13;2064109;28;20451;-69
2023/04/09 03:23:39;;;;;;;33.13;28.10;;;;;;;10.24;100.00;102002.94;2060392;28;20694;-69
2023/04/09 03:24:40;;;;;;;30.87;27.67;;;;;;;9.61;100.00;101891.34;2059610;28;20225;-69
2023/04/09 03:25:40;;;;;;;31.80;28.40;;;;;;;10.31;100.00;102005.69;2061678;28;20269;-69
2023/04/09 03:26:40;;;;;;;40.70;28.90;;;;;;;10.28;100.00;102005.69;2057189;28;20672;-69
2023/04/09 03:27:41;;;;;;;38.27;28.30;;;;;;;10.14;100.00;101978.81;2064466;28;20265;-69
2023/04/09 03:28:41;;;;;;;30.73;27.13;;;;;;;10.19;100.00;101985.94;2056788;28;20278;-69
2023/04/09 03:29:42;;;;;;;34.73;29.90;;;;;;;10.24;100.00;101997.41;2062982;28;20253;-69
2023/04/09 03:30:42;;;;;;;32.87;29.13;;;;;;;10.21;100.00;102003.75;2058496;28;20212;-69
2023/04/09 03:31:42;;;;;;;31.87;28.27;;;;;;;10.20;100.00;101996.59;2060769;28;20202;-69
2023/04/09 03:32:43;;;;;;;32.80;29.40;;;;;;;10.18;100.00;101999.00;2064185;28;20678;-69
2023/04/09 03:33:43;;;;;;;32.63;29.17;;;;;;;10.11;100.00;102004.53;2062197;28;20179;-69
2023/04/09 03:34:44;;;;;;;31.40;28.00;;;;;;;10.16;100.00;102003.34;2057404;28;20194;-69
2023/04/09 03:35:44;;;;;;;33.27;29.77;;;;;;;10.15;100.00;102002.53;2063730;28;20669;-69
2023/04/09 03:36:45;;;;;;;31.50;28.30;;;;;;;10.09;100.00;101995.03;2056537;28;20279;-69
2023/04/09 03:37:45;;;;;;;33.17;29.57;;;;;;;9.32;100.00;101873.19;2063112;28;20284;-69
2023/04/09 03:38:46;;;;;;;32.83;29.33;;;;;;;10.09;100.00;102001.34;2058815;28;20222;-69
2023/04/09 03:39:46;;;;;;;32.10;28.80;;;;;;;10.15;100.00;102001.75;2060928;28;20199;-69
2023/04/09 03:40:47;;;;;;;32.87;29.33;;;;;;;10.11;100.00;102000.97;2063949;28;20650;-69
2023/04/09 03:41:47;;;;;;;33.50;29.90;;;;;;;10.15;100.00;102001.75;2064324;28;20227;-69
2023/04/09 03:42:47;;;;;;;34.03;30.13;;;;;;;10.16;100.00;101998.59;2062597;28;20202;-69
2023/04/09 03:43:48;;;;;;;33.23;29.43;;;;;;;9.75;100.00;101938.44;2056224;28;20218;-69
2023/04/09 03:44:48;;;;;;;33.43;29.43;;;;;;;9.90;100.00;101962.16;2056537;28;20177;-69
2023/04/09 03:45:49;;;;;;;36.53;30.77;;;;;;;10.11;100.00;101996.22;2062652;28;20232;-69
2023/04/09 03:46:49;;;;;;;36.57;31.70;;;;;;;9.98;100.00;101981.16;2064296;28;20227;-69
2023/04/09 03:47:50;;;;;;;37.30;32.07;;;;;;;10.02;100.00;101995.78;2064427;28;20249;-70
2023/04/09 03:48:50;;;;;;;34.33;30.67;;;;;;;9.27;100.00;101881.88;2064269;28;20188;-69
2023/04/09 03:49:50;;;;;;;35.20;31.37;;;;;;;9.79;100.00;101964.16;2064244;28;20198;-69
2023/04/09 03:50:52;;;;;;;36.47;32.47;;;;;;;9.95;100.00;101990.25;2063867;28;20289;-69
2023/04/09 03:51:52;;;;;;;36.13;32.00;;;;;;;9.86;100.00;101984.31;2064015;28;20239;-69
2023/04/09 03:52:53;;;;;;;35.00;31.30;;;;;;;9.98;100.00;101991.44;2064189;28;20239;-69
2023/04/09 03:53:53;;;;;;;35.87;32.07;;;;;;;9.93;100.00;101989.84;2064178;28;20205;-69
2023/04/09 03:54:54;;;;;;;36.27;32.13;;;;;;;9.90;100.00;101996.16;2064349;28;20197;-69
2023/04/09 03:55:54;;;;;;;36.37;32.43;;;;;;;9.85;100.00;101996.56;2063392;28;20669;-69
2023/04/09 03:56:55;;;;;;;35.17;31.37;;;;;;;9.16;100.00;101883.78;2064269;28;20194;-69
2023/04/09 03:57:55;;;;;;;36.93;32.13;;;;;;;9.93;100.00;101994.59;2064060;28;20200;-69
2023/04/09 03:58:56;;;;;;;35.17;31.37;;;;;;;9.91;100.00;101991.44;2064249;28;20604;-69
2023/04/09 03:59:56;;;;;;;36.53;32.40;;;;;;;9.93;100.00;102003.69;2064227;28;20184;-69
2023/04/09 04:00:56;;;;;;;36.97;31.83;;;;;;;9.97;100.00;102000.94;2064065;28;20234;-69
2023/04/09 04:01:57;;;;;;;35.83;31.93;;;;;;;10.03;100.00;101997.38;2064204;28;20197;-69
2023/04/09 04:02:57;;;;;;;35.93;32.07;;;;;;;10.06;100.00;101988.31;2064209;28;20301;-69
2023/04/09 04:03:58;;;;;;;36.63;32.53;;;;;;;10.15;100.00;102001.75;2064192;28;20251;-69
2023/04/09 04:04:59;;;;;;;35.97;32.27;;;;;;;10.08;100.00;101997.00;2064269;28;20185;-69
2023/04/09 04:06:01;;;;;;;37.33;32.43;;;;;;;10.17;100.00;101994.63;2063530;28;20283;-69
2023/04/09 04:07:02;;;;;;;36.28;32.22;;;;;;;10.19;100.00;102003.34;2064062;28;20423;-69
2023/04/09 04:08:03;;;;;;;35.47;31.67;;;;;;;10.17;100.00;102002.94;2064199;28;20176;-69
2023/04/09 04:09:03;;;;;;;36.60;32.60;;;;;;;10.17;100.00;102002.16;2064315;28;20419;-69
2023/04/09 04:10:05;;;;;;;35.97;32.27;;;;;;;10.13;100.00;101993.84;2064286;28;20562;-69
2023/04/09 04:11:06;;;;;;;35.57;31.10;;;;;;;10.18;100.00;101998.19;2063791;28;20204;-69
2023/04/09 04:12:06;;;;;;;36.80;32.90;;;;;;;10.12;100.00;101997.00;2063844;28;20528;-69
2023/04/09 04:13:10;;;;;;;34.53;30.90;;;;;;;10.12;100.00;101997.81;2064260;28;20209;-69
2023/04/09 04:14:10;;;;;;;35.57;31.77;;;;;;;9.91;100.00;101967.31;2064189;28;20297;-69
2023/04/09 04:15:10;;;;;;;38.90;32.57;;;;;;;10.11;100.00;101995.44;2055497;28;20436;-69
2023/04/09 04:16:11;;;;;;;36.60;32.50;;;;;;;9.99;100.00;101988.28;2054951;28;20327;-69
2023/04/09 04:17:11;;;;;;;39.63;33.27;;;;;;;10.02;100.00;102001.34;2063941;28;20184;-69
2023/04/09 04:18:12;;;;;;;37.60;33.57;;;;;;;10.00;100.00;101997.38;2064196;28;20721;-69
2023/04/09 04:19:12;;;;;;;35.97;32.07;;;;;;;9.93;100.00;101997.34;2064222;28;20295;-69
2023/04/09 04:20:13;;;;;;;39.43;33.27;;;;;;;9.93;100.00;101998.16;2058099;28;20655;-69
2023/04/09 04:21:14;;;;;;;38.90;33.23;;;;;;;9.88;100.00;101998.56;2061511;28;20187;-69
2023/04/09 04:22:14;;;;;;;39.75;33.15;;;;;;;9.85;100.00;101991.03;2063582;28;20203;-70
2023/04/09 04:23:14;;;;;;;38.87;33.33;;;;;;;9.92;100.00;102004.09;2060592;28;20678;-69
2023/04/09 04:24:15;;;;;;;37.47;33.43;;;;;;;9.95;100.00;102003.31;2058681;28;20548;-69
2023/04/09 04:25:15;;;;;;;39.13;33.23;;;;;;;9.94;100.00;102004.50;2062382;28;20173;-69
2023/04/09 04:26:16;;;;;;;38.63;33.37;;;;;;;9.97;100.00;102007.28;2056785;28;20191;-69
2023/04/09 04:27:16;;;;;;;36.83;32.83;;;;;;;8.95;100.00;101845.84;2057417;28;20187;-69
2023/04/09 04:28:17;;;;;;;36.43;32.60;;;;;;;9.95;100.00;102006.09;2057841;28;20199;-69
2023/04/09 04:29:17;;;;;;;38.33;34.20;;;;;;;9.84;100.00;101999.75;2063998;28;20590;-69
2023/04/09 04:30:17;;;;;;;35.57;30.97;;;;;;;9.94;100.00;102004.50;2060838;28;20288;-69
2023/04/09 04:31:18;;;;;;;37.43;32.27;;;;;;;9.96;100.00;102007.66;2061170;28;20192;-69
2023/04/09 04:32:18;;;;;;;36.30;32.27;;;;;;;9.83;100.00;101990.63;2062585;28;20190;-69
2023/04/09 04:33:19;;;;;;;35.50;31.70;;;;;;;9.98;100.00;102000.53;2059239;28;20228;-69
2023/04/09 04:34:19;;;;;;;37.33;32.50;;;;;;;10.02;100.00;102008.84;2065159;28;20217;-69
2023/04/09 04:35:20;;;;;;;37.20;32.37;;;;;;;9.99;100.00;102004.88;2057544;28;20632;-69
2023/04/09 04:36:21;;;;;;;35.75;31.42;;;;;;;9.96;100.00;102005.69;2065297;28;20190;-69
2023/04/09 04:37:21;;;;;;;38.33;32.60;;;;;;;9.31;100.00;101919.41;2058856;28;20664;-69
2023/04/09 04:38:21;;;;;;;37.47;31.30;;;;;;;9.97;100.00;102004.50;2063036;28;20553;-69
2023/04/09 04:39:22;;;;;;;37.97;32.87;;;;;;;9.95;100.00;102014.38;2061799;28;20184;-69
2023/04/09 04:40:23;;;;;;;37.27;31.97;;;;;;;9.91;100.00;102011.63;2065686;28;20646;-69